sensor_id;sensor_type;location;lat;lon;timestamp;temperature;humidity
16263;DHT22;8239;48.594;8.598;2024-01-06T00:01:19;2.40;99.90
16263;DHT22;8239;48.594;8.598;2024-01-06T00:03:46;2.30;99.90
16263;DHT22;8239;48.594;8.598;2024-01-06T00:06:14;2.30;99.90
16263;DHT22;8239;48.594;8.598;2024-01-06T00:08:41;2.30;99.90
16263;DHT22;8239;48.594;8.598;2024-01-06T00:11:08;2.30;99.90
16263;DHT22;8239;48.594;8.598;2024-01-06T00:13:35;2.20;99.90
16263;DHT22;8239;48.594;8.598;2024-01-06T00:16:04;2.20;99.90
16263;DHT22;8239;48.594;8.598;2024-01-06T00:18:31;2.20;99.90
16263;DHT22;8239;48.594;8.598;2024-01-06T00:20:58;2.20;99.90
16263;DHT22;8239;48.594;8.598;2024-01-06T00:23:24;2.10;99.90
16263;DHT22;8239;48.594;8.598;2024-01-06T00:25:51;2.10;99.90
16263;DHT22;8239;48.594;8.598;2024-01-06T00:28:18;2.10;99.90
16263;DHT22;8239;48.594;8.598;2024-01-06T00:30:45;2.10;99.90
16263;DHT22;8239;48.594;8.598;2024-01-06T00:33:14;2.10;99.90
16263;DHT22;8239;48.594;8.598;2024-01-06T00:35:41;2.10;99.90
16263;DHT22;8239;48.594;8.598;2024-01-06T00:38:08;2.10;99.90
16263;DHT22;8239;48.594;8.598;2024-01-06T00:40:35;2.00;99.90
16263;DHT22;8239;48.594;8.598;2024-01-06T00:43:02;2.10;99.90
16263;DHT22;8239;48.594;8.598;2024-01-06T00:45:29;2.10;99.90
16263;DHT22;8239;48.594;8.598;2024-01-06T00:47:57;2.10;99.90
16263;DHT22;8239;48.594;8.598;2024-01-06T00:50:25;2.10;99.90
16263;DHT22;8239;48.594;8.598;2024-01-06T00:52:52;2.10;99.90
16263;DHT22;8239;48.594;8.598;2024-01-06T00:55:19;2.20;99.90
16263;DHT22;8239;48.594;8.598;2024-01-06T00:57:46;2.20;99.90
16263;DHT22;8239;48.594;8.598;2024-01-06T01:00:14;2.20;99.90
16263;DHT22;8239;48.594;8.598;2024-01-06T01:02:41;2.20;99.90
16263;DHT22;8239;48.594;8.598;2024-01-06T01:05:08;2.20;99.90
16263;DHT22;8239;48.594;8.598;2024-01-06T01:07:37;2.30;99.90
16263;DHT22;8239;48.594;8.598;2024-01-06T01:10:04;2.30;99.90
16263;DHT22;8239;48.594;8.598;2024-01-06T01:12:31;2.30;99.90
16263;DHT22;8239;48.594;8.598;2024-01-06T01:14:58;2.40;99.90
16263;DHT22;8239;48.594;8.598;2024-01-06T01:17:28;2.40;99.90
16263;DHT22;8239;48.594;8.598;2024-01-06T01:19:55;2.40;99.90
16263;DHT22;8239;48.594;8.598;2024-01-06T01:22:22;2.40;99.90
16263;DHT22;8239;48.594;8.598;2024-01-06T01:24:50;2.50;99.90
16263;DHT22;8239;48.594;8.598;2024-01-06T01:27:18;2.50;99.90
16263;DHT22;8239;48.594;8.598;2024-01-06T01:29:45;2.50;99.90
16263;DHT22;8239;48.594;8.598;2024-01-06T01:32:13;2.50;99.90
16263;DHT22;8239;48.594;8.598;2024-01-06T01:34:40;2.50;99.90
16263;DHT22;8239;48.594;8.598;2024-01-06T01:37:07;2.50;99.90
16263;DHT22;8239;48.594;8.598;2024-01-06T01:39:34;2.50;99.90
16263;DHT22;8239;48.594;8.598;2024-01-06T01:42:03;2.60;99.90
16263;DHT22;8239;48.594;8.598;2024-01-06T01:44:30;2.60;99.90
16263;DHT22;8239;48.594;8.598;2024-01-06T01:46:57;2.60;99.90
16263;DHT22;8239;48.594;8.598;2024-01-06T01:49:24;2.60;99.90
16263;DHT22;8239;48.594;8.598;2024-01-06T01:51:53;2.60;99.90
16263;DHT22;8239;48.594;8.598;2024-01-06T01:54:20;2.60;99.90
16263;DHT22;8239;48.594;8.598;2024-01-06T01:56:47;2.60;99.90
16263;DHT22;8239;48.594;8.598;2024-01-06T01:59:18;2.60;99.90
16263;DHT22;8239;48.594;8.598;2024-01-06T02:01:44;2.60;99.90
16263;DHT22;8239;48.594;8.598;2024-01-06T02:04:12;2.50;99.90
16263;DHT22;8239;48.594;8.598;2024-01-06T02:06:39;2.50;99.90
16263;DHT22;8239;48.594;8.598;2024-01-06T02:09:06;2.50;99.90
16263;DHT22;8239;48.594;8.598;2024-01-06T02:11:33;2.50;99.90
16263;DHT22;8239;48.594;8.598;2024-01-06T02:14:00;2.50;99.90
16263;DHT22;8239;48.594;8.598;2024-01-06T02:16:29;2.50;99.90
16263;DHT22;8239;48.594;8.598;2024-01-06T02:18:55;2.50;99.90
16263;DHT22;8239;48.594;8.598;2024-01-06T02:21:23;2.50;99.90
16263;DHT22;8239;48.594;8.598;2024-01-06T02:23:52;2.50;99.90
16263;DHT22;8239;48.594;8.598;2024-01-06T02:26:19;2.50;99.90
16263;DHT22;8239;48.594;8.598;2024-01-06T02:28:46;2.50;99.90
16263;DHT22;8239;48.594;8.598;2024-01-06T02:31:13;2.50;99.90
16263;DHT22;8239;48.594;8.598;2024-01-06T02:33:40;2.50;99.90
16263;DHT22;8239;48.594;8.598;2024-01-06T02:36:07;2.50;99.90
16263;DHT22;8239;48.594;8.598;2024-01-06T02:38:34;2.50;99.90
16263;DHT22;8239;48.594;8.598;2024-01-06T02:41:03;2.50;99.90
16263;DHT22;8239;48.594;8.598;2024-01-06T02:43:30;2.50;99.90
16263;DHT22;8239;48.594;8.598;2024-01-06T02:45:57;2.50;99.90
16263;DHT22;8239;48.594;8.598;2024-01-06T02:48:23;2.50;99.90
16263;DHT22;8239;48.594;8.598;2024-01-06T02:50:51;2.60;99.90
16263;DHT22;8239;48.594;8.598;2024-01-06T02:53:18;2.60;99.90
16263;DHT22;8239;48.594;8.598;2024-01-06T02:55:45;2.60;99.90
16263;DHT22;8239;48.594;8.598;2024-01-06T02:58:13;2.60;99.90
16263;DHT22;8239;48.594;8.598;2024-01-06T03:00:40;2.60;99.90
16263;DHT22;8239;48.594;8.598;2024-01-06T03:03:10;2.60;99.90
16263;DHT22;8239;48.594;8.598;2024-01-06T03:05:37;2.60;99.90
16263;DHT22;8239;48.594;8.598;2024-01-06T03:08:05;2.70;99.90
16263;DHT22;8239;48.594;8.598;2024-01-06T03:10:32;2.60;99.90
16263;DHT22;8239;48.594;8.598;2024-01-06T03:12:59;2.50;99.90
16263;DHT22;8239;48.594;8.598;2024-01-06T03:15:28;2.50;99.90
16263;DHT22;8239;48.594;8.598;2024-01-06T03:17:55;2.50;99.90
16263;DHT22;8239;48.594;8.598;2024-01-06T03:20:22;2.50;99.90
16263;DHT22;8239;48.594;8.598;2024-01-06T03:22:49;2.40;99.90
16263;DHT22;8239;48.594;8.598;2024-01-06T03:25:16;2.30;99.90
16263;DHT22;8239;48.594;8.598;2024-01-06T03:27:43;2.30;99.90
16263;DHT22;8239;48.594;8.598;2024-01-06T03:30:11;2.30;99.90
16263;DHT22;8239;48.594;8.598;2024-01-06T03:32:40;2.20;99.90
16263;DHT22;8239;48.594;8.598;2024-01-06T03:35:07;2.20;99.90
16263;DHT22;8239;48.594;8.598;2024-01-06T03:37:34;2.20;99.90
16263;DHT22;8239;48.594;8.598;2024-01-06T03:40:01;2.20;99.90
16263;DHT22;8239;48.594;8.598;2024-01-06T03:42:29;2.20;99.90
16263;DHT22;8239;48.594;8.598;2024-01-06T03:44:55;2.20;99.90
16263;DHT22;8239;48.594;8.598;2024-01-06T03:47:22;2.20;99.90
16263;DHT22;8239;48.594;8.598;2024-01-06T03:49:51;2.20;99.90
16263;DHT22;8239;48.594;8.598;2024-01-06T03:52:18;2.30;99.90
16263;DHT22;8239;48.594;8.598;2024-01-06T03:54:45;2.30;99.90
16263;DHT22;8239;48.594;8.598;2024-01-06T03:57:12;2.30;99.90
16263;DHT22;8239;48.594;8.598;2024-01-06T03:59:39;2.30;99.90
16263;DHT22;8239;48.594;8.598;2024-01-06T04:02:06;2.30;99.90
16263;DHT22;8239;48.594;8.598;2024-01-06T04:04:33;2.40;99.90
16263;DHT22;8239;48.594;8.598;2024-01-06T04:07:01;2.40;99.90
16263;DHT22;8239;48.594;8.598;2024-01-06T04:09:28;2.40;99.90
16263;DHT22;8239;48.594;8.598;2024-01-06T04:11:55;2.40;99.90
16263;DHT22;8239;48.594;8.598;2024-01-06T04:14:22;2.40;99.90
16263;DHT22;8239;48.594;8.598;2024-01-06T04:16:48;2.40;99.90
16263;DHT22;8239;48.594;8.598;2024-01-06T04:19:15;2.50;99.90
16263;DHT22;8239;48.594;8.598;2024-01-06T04:21:42;2.50;99.90
16263;DHT22;8239;48.594;8.598;2024-01-06T04:24:10;2.40;99.90
16263;DHT22;8239;48.594;8.598;2024-01-06T04:26:37;2.40;99.90
16263;DHT22;8239;48.594;8.598;2024-01-06T04:29:04;2.40;99.90
16263;DHT22;8239;48.594;8.598;2024-01-06T04:31:31;2.40;99.90
16263;DHT22;8239;48.594;8.598;2024-01-06T04:33:58;2.40;99.90
16263;DHT22;8239;48.594;8.598;2024-01-06T04:36:25;2.40;99.90
16263;DHT22;8239;48.594;8.598;2024-01-06T04:38:52;2.30;99.90
16263;DHT22;8239;48.594;8.598;2024-01-06T04:41:21;2.30;99.90
16263;DHT22;8239;48.594;8.598;2024-01-06T04:43:48;2.30;99.90
16263;DHT22;8239;48.594;8.598;2024-01-06T04:46:14;2.30;99.90
16263;DHT22;8239;48.594;8.598;2024-01-06T04:48:41;2.30;99.90
16263;DHT22;8239;48.594;8.598;2024-01-06T04:51:09;2.30;99.90
16263;DHT22;8239;48.594;8.598;2024-01-06T04:53:38;2.30;99.90
16263;DHT22;8239;48.594;8.598;2024-01-06T04:56:05;2.30;99.90
16263;DHT22;8239;48.594;8.598;2024-01-06T04:58:33;2.40;99.90
16263;DHT22;8239;48.594;8.598;2024-01-06T05:01:01;2.40;99.90
16263;DHT22;8239;48.594;8.598;2024-01-06T05:03:28;2.40;99.90
16263;DHT22;8239;48.594;8.598;2024-01-06T05:05:55;2.40;99.90
16263;DHT22;8239;48.594;8.598;2024-01-06T05:08:22;2.40;99.90
16263;DHT22;8239;48.594;8.598;2024-01-06T05:10:52;2.50;99.90
16263;DHT22;8239;48.594;8.598;2024-01-06T05:13:19;2.50;99.90
16263;DHT22;8239;48.594;8.598;2024-01-06T05:15:47;2.50;99.90
16263;DHT22;8239;48.594;8.598;2024-01-06T05:18:14;2.50;99.90
16263;DHT22;8239;48.594;8.598;2024-01-06T05:20:41;2.50;99.90
16263;DHT22;8239;48.594;8.598;2024-01-06T05:23:09;2.50;99.90
16263;DHT22;8239;48.594;8.598;2024-01-06T05:25:36;2.50;99.90
16263;DHT22;8239;48.594;8.598;2024-01-06T05:28:03;2.50;99.90
16263;DHT22;8239;48.594;8.598;2024-01-06T05:30:30;2.50;99.90
16263;DHT22;8239;48.594;8.598;2024-01-06T05:32:58;2.50;99.90
16263;DHT22;8239;48.594;8.598;2024-01-06T05:35:25;2.50;99.90
16263;DHT22;8239;48.594;8.598;2024-01-06T05:37:52;2.50;99.90
16263;DHT22;8239;48.594;8.598;2024-01-06T05:40:19;2.50;99.90
16263;DHT22;8239;48.594;8.598;2024-01-06T05:42:46;2.40;99.90
16263;DHT22;8239;48.594;8.598;2024-01-06T05:45:13;2.50;99.90
16263;DHT22;8239;48.594;8.598;2024-01-06T05:47:40;2.50;99.90
16263;DHT22;8239;48.594;8.598;2024-01-06T05:50:09;2.50;99.90
16263;DHT22;8239;48.594;8.598;2024-01-06T05:52:36;2.50;99.90
16263;DHT22;8239;48.594;8.598;2024-01-06T05:55:03;2.50;99.90
16263;DHT22;8239;48.594;8.598;2024-01-06T05:57:30;2.60;99.90
16263;DHT22;8239;48.594;8.598;2024-01-06T05:59:59;2.60;99.90
16263;DHT22;8239;48.594;8.598;2024-01-06T06:02:26;2.60;99.90
16263;DHT22;8239;48.594;8.598;2024-01-06T06:04:53;2.70;99.90
16263;DHT22;8239;48.594;8.598;2024-01-06T06:07:21;2.70;99.90
16263;DHT22;8239;48.594;8.598;2024-01-06T06:09:48;2.60;99.90
16263;DHT22;8239;48.594;8.598;2024-01-06T06:12:15;2.60;99.90
16263;DHT22;8239;48.594;8.598;2024-01-06T06:14:42;2.60;99.90
16263;DHT22;8239;48.594;8.598;2024-01-06T06:17:09;2.60;99.90
16263;DHT22;8239;48.594;8.598;2024-01-06T06:19:36;2.60;99.90
16263;DHT22;8239;48.594;8.598;2024-01-06T06:22:04;2.60;99.90
16263;DHT22;8239;48.594;8.598;2024-01-06T06:24:32;2.60;99.90
16263;DHT22;8239;48.594;8.598;2024-01-06T06:26:59;2.60;99.90
16263;DHT22;8239;48.594;8.598;2024-01-06T06:29:25;2.60;99.90
16263;DHT22;8239;48.594;8.598;2024-01-06T06:31:54;2.60;99.90
16263;DHT22;8239;48.594;8.598;2024-01-06T06:34:21;2.60;99.90
16263;DHT22;8239;48.594;8.598;2024-01-06T06:36:48;2.60;99.90
16263;DHT22;8239;48.594;8.598;2024-01-06T06:39:15;2.60;99.90
16263;DHT22;8239;48.594;8.598;2024-01-06T06:41:45;2.60;99.90
16263;DHT22;8239;48.594;8.598;2024-01-06T06:44:12;2.70;99.90
16263;DHT22;8239;48.594;8.598;2024-01-06T06:46:39;3.00;99.90
16263;DHT22;8239;48.594;8.598;2024-01-06T06:49:06;3.30;99.90
16263;DHT22;8239;48.594;8.598;2024-01-06T06:51:33;3.40;99.90
16263;DHT22;8239;48.594;8.598;2024-01-06T06:54:00;3.30;99.90
16263;DHT22;8239;48.594;8.598;2024-01-06T06:56:27;3.30;99.90
16263;DHT22;8239;48.594;8.598;2024-01-06T06:58:55;3.20;99.90
16263;DHT22;8239;48.594;8.598;2024-01-06T07:01:22;3.10;99.90
16263;DHT22;8239;48.594;8.598;2024-01-06T07:03:49;3.10;99.90
16263;DHT22;8239;48.594;8.598;2024-01-06T07:06:16;3.00;99.90
16263;DHT22;8239;48.594;8.598;2024-01-06T07:08:43;3.00;99.90
16263;DHT22;8239;48.594;8.598;2024-01-06T07:11:10;3.00;99.90
16263;DHT22;8239;48.594;8.598;2024-01-06T07:13:37;3.00;99.90
16263;DHT22;8239;48.594;8.598;2024-01-06T07:16:05;2.90;99.90
16263;DHT22;8239;48.594;8.598;2024-01-06T07:18:33;2.90;99.90
16263;DHT22;8239;48.594;8.598;2024-01-06T07:21:00;2.90;99.90
16263;DHT22;8239;48.594;8.598;2024-01-06T07:23:27;2.80;99.90
16263;DHT22;8239;48.594;8.598;2024-01-06T07:25:55;2.80;99.90
16263;DHT22;8239;48.594;8.598;2024-01-06T07:28:22;2.80;99.90
16263;DHT22;8239;48.594;8.598;2024-01-06T07:30:49;2.80;99.90
16263;DHT22;8239;48.594;8.598;2024-01-06T07:33:18;2.80;99.90
16263;DHT22;8239;48.594;8.598;2024-01-06T07:35:46;2.80;99.90
16263;DHT22;8239;48.594;8.598;2024-01-06T07:38:13;2.70;99.90
16263;DHT22;8239;48.594;8.598;2024-01-06T07:40:40;2.70;99.90
16263;DHT22;8239;48.594;8.598;2024-01-06T07:43:09;2.70;99.90
16263;DHT22;8239;48.594;8.598;2024-01-06T07:45:36;2.70;99.90
16263;DHT22;8239;48.594;8.598;2024-01-06T07:48:05;2.60;99.90
16263;DHT22;8239;48.594;8.598;2024-01-06T07:50:33;2.60;99.90
16263;DHT22;8239;48.594;8.598;2024-01-06T07:53:00;2.60;99.90
16263;DHT22;8239;48.594;8.598;2024-01-06T07:55:27;2.60;99.90
16263;DHT22;8239;48.594;8.598;2024-01-06T07:57:54;2.60;99.90
16263;DHT22;8239;48.594;8.598;2024-01-06T08:00:21;2.60;99.90
16263;DHT22;8239;48.594;8.598;2024-01-06T08:02:48;2.60;99.90
16263;DHT22;8239;48.594;8.598;2024-01-06T08:05:15;2.70;99.90
16263;DHT22;8239;48.594;8.598;2024-01-06T08:07:44;2.70;99.90
16263;DHT22;8239;48.594;8.598;2024-01-06T08:10:11;2.70;99.90
16263;DHT22;8239;48.594;8.598;2024-01-06T08:12:38;2.80;99.90
16263;DHT22;8239;48.594;8.598;2024-01-06T08:15:05;2.80;99.90
16263;DHT22;8239;48.594;8.598;2024-01-06T08:17:34;2.80;99.90
16263;DHT22;8239;48.594;8.598;2024-01-06T08:20:01;2.90;99.90
16263;DHT22;8239;48.594;8.598;2024-01-06T08:22:29;2.90;99.90
16263;DHT22;8239;48.594;8.598;2024-01-06T08:24:57;2.90;99.90
16263;DHT22;8239;48.594;8.598;2024-01-06T08:27:25;2.90;99.90
16263;DHT22;8239;48.594;8.598;2024-01-06T08:29:52;2.90;99.90
16263;DHT22;8239;48.594;8.598;2024-01-06T08:32:19;3.00;99.90
16263;DHT22;8239;48.594;8.598;2024-01-06T08:34:46;3.10;99.90
16263;DHT22;8239;48.594;8.598;2024-01-06T08:37:13;3.20;99.90
16263;DHT22;8239;48.594;8.598;2024-01-06T08:39:40;3.30;99.90
16263;DHT22;8239;48.594;8.598;2024-01-06T08:42:10;3.50;99.90
16263;DHT22;8239;48.594;8.598;2024-01-06T08:44:37;3.70;99.90
16263;DHT22;8239;48.594;8.598;2024-01-06T08:47:04;3.80;99.90
16263;DHT22;8239;48.594;8.598;2024-01-06T08:49:32;4.00;99.90
16263;DHT22;8239;48.594;8.598;2024-01-06T08:51:59;4.20;99.90
16263;DHT22;8239;48.594;8.598;2024-01-06T08:54:26;4.40;99.90
16263;DHT22;8239;48.594;8.598;2024-01-06T08:56:54;4.60;99.90
16263;DHT22;8239;48.594;8.598;2024-01-06T08:59:24;4.80;99.90
16263;DHT22;8239;48.594;8.598;2024-01-06T09:01:50;4.90;99.90
16263;DHT22;8239;48.594;8.598;2024-01-06T09:04:18;4.90;99.90
16263;DHT22;8239;48.594;8.598;2024-01-06T09:06:45;5.00;99.90
16263;DHT22;8239;48.594;8.598;2024-01-06T09:09:13;5.00;99.90
16263;DHT22;8239;48.594;8.598;2024-01-06T09:11:40;5.00;99.90
16263;DHT22;8239;48.594;8.598;2024-01-06T09:14:09;4.90;99.90
16263;DHT22;8239;48.594;8.598;2024-01-06T09:16:39;4.90;99.90
16263;DHT22;8239;48.594;8.598;2024-01-06T09:19:06;4.80;99.90
16263;DHT22;8239;48.594;8.598;2024-01-06T09:21:33;4.80;99.90
16263;DHT22;8239;48.594;8.598;2024-01-06T09:24:01;4.90;99.90
16263;DHT22;8239;48.594;8.598;2024-01-06T09:26:32;4.90;99.90
16263;DHT22;8239;48.594;8.598;2024-01-06T09:29:00;4.90;99.90
16263;DHT22;8239;48.594;8.598;2024-01-06T09:31:27;5.00;99.90
16263;DHT22;8239;48.594;8.598;2024-01-06T09:33:55;5.10;99.90
16263;DHT22;8239;48.594;8.598;2024-01-06T09:36:22;5.10;99.90
16263;DHT22;8239;48.594;8.598;2024-01-06T09:38:49;5.20;99.90
16263;DHT22;8239;48.594;8.598;2024-01-06T09:41:17;5.20;99.90
16263;DHT22;8239;48.594;8.598;2024-01-06T09:43:44;5.00;99.90
16263;DHT22;8239;48.594;8.598;2024-01-06T09:46:24;4.90;99.90
16263;DHT22;8239;48.594;8.598;2024-01-06T09:48:52;4.80;99.90
16263;DHT22;8239;48.594;8.598;2024-01-06T09:51:22;4.70;99.90
16263;DHT22;8239;48.594;8.598;2024-01-06T09:53:55;4.70;99.90
16263;DHT22;8239;48.594;8.598;2024-01-06T09:56:24;4.70;99.90
16263;DHT22;8239;48.594;8.598;2024-01-06T09:58:51;4.80;99.90
16263;DHT22;8239;48.594;8.598;2024-01-06T10:01:19;4.80;99.90
16263;DHT22;8239;48.594;8.598;2024-01-06T10:03:47;4.80;99.90
16263;DHT22;8239;48.594;8.598;2024-01-06T10:06:14;4.80;99.90
16263;DHT22;8239;48.594;8.598;2024-01-06T10:08:44;4.70;99.90
16263;DHT22;8239;48.594;8.598;2024-01-06T10:11:11;4.60;99.90
16263;DHT22;8239;48.594;8.598;2024-01-06T10:13:40;4.50;99.90
16263;DHT22;8239;48.594;8.598;2024-01-06T10:16:07;4.50;99.90
16263;DHT22;8239;48.594;8.598;2024-01-06T10:18:34;4.40;99.90
16263;DHT22;8239;48.594;8.598;2024-01-06T10:21:03;4.40;99.90
16263;DHT22;8239;48.594;8.598;2024-01-06T10:23:32;4.50;99.90
16263;DHT22;8239;48.594;8.598;2024-01-06T10:26:01;4.40;99.90
16263;DHT22;8239;48.594;8.598;2024-01-06T10:28:29;4.40;99.90
16263;DHT22;8239;48.594;8.598;2024-01-06T10:30:56;4.40;99.90
16263;DHT22;8239;48.594;8.598;2024-01-06T10:33:25;4.40;99.90
16263;DHT22;8239;48.594;8.598;2024-01-06T10:35:53;4.40;99.90
16263;DHT22;8239;48.594;8.598;2024-01-06T10:38:21;4.40;99.90
16263;DHT22;8239;48.594;8.598;2024-01-06T10:40:56;4.50;99.90
16263;DHT22;8239;48.594;8.598;2024-01-06T10:43:26;4.60;99.90
16263;DHT22;8239;48.594;8.598;2024-01-06T10:45:56;4.60;99.90
16263;DHT22;8239;48.594;8.598;2024-01-06T10:48:25;4.60;99.90
16263;DHT22;8239;48.594;8.598;2024-01-06T10:50:53;4.70;99.90
16263;DHT22;8239;48.594;8.598;2024-01-06T10:53:21;4.80;99.90
16263;DHT22;8239;48.594;8.598;2024-01-06T10:55:50;4.80;99.90
16263;DHT22;8239;48.594;8.598;2024-01-06T10:58:19;4.90;99.90
16263;DHT22;8239;48.594;8.598;2024-01-06T11:00:48;4.80;99.90
16263;DHT22;8239;48.594;8.598;2024-01-06T11:03:15;4.80;99.90
16263;DHT22;8239;48.594;8.598;2024-01-06T11:05:42;4.80;99.90
16263;DHT22;8239;48.594;8.598;2024-01-06T11:08:11;4.80;99.90
16263;DHT22;8239;48.594;8.598;2024-01-06T11:10:39;4.80;99.90
16263;DHT22;8239;48.594;8.598;2024-01-06T11:13:09;4.90;99.90
16263;DHT22;8239;48.594;8.598;2024-01-06T11:15:42;5.10;99.90
16263;DHT22;8239;48.594;8.598;2024-01-06T11:18:30;5.20;99.90
16263;DHT22;8239;48.594;8.598;2024-01-06T11:21:18;5.20;99.90
16263;DHT22;8239;48.594;8.598;2024-01-06T11:26:51;5.10;99.90
16263;DHT22;8239;48.594;8.598;2024-01-06T11:29:19;5.10;99.90
16263;DHT22;8239;48.594;8.598;2024-01-06T11:32:16;5.00;99.90
16263;DHT22;8239;48.594;8.598;2024-01-06T11:34:47;5.00;99.90
16263;DHT22;8239;48.594;8.598;2024-01-06T11:37:15;5.00;99.90
16263;DHT22;8239;48.594;8.598;2024-01-06T11:39:44;4.90;99.90
16263;DHT22;8239;48.594;8.598;2024-01-06T11:42:12;4.90;99.90
16263;DHT22;8239;48.594;8.598;2024-01-06T11:44:39;5.00;99.90
16263;DHT22;8239;48.594;8.598;2024-01-06T11:47:08;4.90;99.90
16263;DHT22;8239;48.594;8.598;2024-01-06T11:49:35;5.00;99.90
16263;DHT22;8239;48.594;8.598;2024-01-06T11:52:04;5.10;99.90
16263;DHT22;8239;48.594;8.598;2024-01-06T11:54:33;5.20;99.90
16263;DHT22;8239;48.594;8.598;2024-01-06T11:57:00;5.30;99.90
16263;DHT22;8239;48.594;8.598;2024-01-06T11:59:27;5.30;99.90
16263;DHT22;8239;48.594;8.598;2024-01-06T12:01:54;5.20;99.90
16263;DHT22;8239;48.594;8.598;2024-01-06T12:04:22;5.20;99.90
16263;DHT22;8239;48.594;8.598;2024-01-06T12:06:51;5.30;99.90
16263;DHT22;8239;48.594;8.598;2024-01-06T12:09:21;5.30;99.90
16263;DHT22;8239;48.594;8.598;2024-01-06T12:12:01;5.50;99.90
16263;DHT22;8239;48.594;8.598;2024-01-06T12:14:30;5.60;99.90
16263;DHT22;8239;48.594;8.598;2024-01-06T12:16:58;5.80;99.90
16263;DHT22;8239;48.594;8.598;2024-01-06T12:19:29;6.00;99.90
16263;DHT22;8239;48.594;8.598;2024-01-06T12:21:56;6.20;99.90
16263;DHT22;8239;48.594;8.598;2024-01-06T12:24:27;6.50;99.90
16263;DHT22;8239;48.594;8.598;2024-01-06T12:26:56;6.90;99.90
16263;DHT22;8239;48.594;8.598;2024-01-06T12:29:26;7.30;99.90
16263;DHT22;8239;48.594;8.598;2024-01-06T12:31:55;7.90;99.90
16263;DHT22;8239;48.594;8.598;2024-01-06T12:34:25;8.30;99.40
16263;DHT22;8239;48.594;8.598;2024-01-06T12:36:53;8.50;97.00
16263;DHT22;8239;48.594;8.598;2024-01-06T12:39:21;8.40;96.40
16263;DHT22;8239;48.594;8.598;2024-01-06T12:41:52;8.20;95.90
16263;DHT22;8239;48.594;8.598;2024-01-06T12:44:19;8.00;95.60
16263;DHT22;8239;48.594;8.598;2024-01-06T12:46:46;7.50;96.80
16263;DHT22;8239;48.594;8.598;2024-01-06T12:49:13;7.20;98.40
16263;DHT22;8239;48.594;8.598;2024-01-06T12:51:40;7.10;98.60
16263;DHT22;8239;48.594;8.598;2024-01-06T12:54:07;7.00;98.80
16263;DHT22;8239;48.594;8.598;2024-01-06T12:56:35;7.00;98.20
16263;DHT22;8239;48.594;8.598;2024-01-06T12:59:04;6.90;98.90
16263;DHT22;8239;48.594;8.598;2024-01-06T13:01:31;6.90;99.80
16263;DHT22;8239;48.594;8.598;2024-01-06T13:03:58;6.80;99.90
16263;DHT22;8239;48.594;8.598;2024-01-06T13:06:27;6.80;99.90
16263;DHT22;8239;48.594;8.598;2024-01-06T13:08:54;6.70;99.90
16263;DHT22;8239;48.594;8.598;2024-01-06T13:11:21;6.70;99.90
16263;DHT22;8239;48.594;8.598;2024-01-06T13:13:48;6.50;99.90
16263;DHT22;8239;48.594;8.598;2024-01-06T13:16:17;6.30;99.90
16263;DHT22;8239;48.594;8.598;2024-01-06T13:18:44;6.10;99.90
16263;DHT22;8239;48.594;8.598;2024-01-06T13:21:11;5.90;99.90
16263;DHT22;8239;48.594;8.598;2024-01-06T13:23:38;5.70;99.90
16263;DHT22;8239;48.594;8.598;2024-01-06T13:26:06;5.60;99.90
16263;DHT22;8239;48.594;8.598;2024-01-06T13:28:36;5.50;99.90
16263;DHT22;8239;48.594;8.598;2024-01-06T13:31:03;5.40;99.90
16263;DHT22;8239;48.594;8.598;2024-01-06T13:33:32;5.30;99.90
16263;DHT22;8239;48.594;8.598;2024-01-06T13:36:02;5.20;99.90
16263;DHT22;8239;48.594;8.598;2024-01-06T13:38:29;5.20;99.90
16263;DHT22;8239;48.594;8.598;2024-01-06T13:40:56;5.20;99.90
16263;DHT22;8239;48.594;8.598;2024-01-06T13:43:23;5.20;99.90
16263;DHT22;8239;48.594;8.598;2024-01-06T13:45:50;5.20;99.90
16263;DHT22;8239;48.594;8.598;2024-01-06T13:48:18;5.20;99.90
16263;DHT22;8239;48.594;8.598;2024-01-06T13:50:47;5.20;99.90
16263;DHT22;8239;48.594;8.598;2024-01-06T13:53:15;5.20;99.90
16263;DHT22;8239;48.594;8.598;2024-01-06T13:55:43;5.20;99.90
16263;DHT22;8239;48.594;8.598;2024-01-06T13:58:10;5.10;99.90
16263;DHT22;8239;48.594;8.598;2024-01-06T14:00:37;5.00;99.90
16263;DHT22;8239;48.594;8.598;2024-01-06T14:03:05;5.00;99.90
16263;DHT22;8239;48.594;8.598;2024-01-06T14:05:33;4.90;99.90
16263;DHT22;8239;48.594;8.598;2024-01-06T14:08:02;4.80;99.90
16263;DHT22;8239;48.594;8.598;2024-01-06T14:10:29;4.70;99.90
16263;DHT22;8239;48.594;8.598;2024-01-06T14:12:57;4.70;99.90
16263;DHT22;8239;48.594;8.598;2024-01-06T14:15:24;4.70;99.90
16263;DHT22;8239;48.594;8.598;2024-01-06T14:17:52;4.70;99.90
16263;DHT22;8239;48.594;8.598;2024-01-06T14:20:19;4.70;99.90
16263;DHT22;8239;48.594;8.598;2024-01-06T14:22:47;4.70;99.90
16263;DHT22;8239;48.594;8.598;2024-01-06T14:25:16;4.70;99.90
16263;DHT22;8239;48.594;8.598;2024-01-06T14:27:44;4.70;99.90
16263;DHT22;8239;48.594;8.598;2024-01-06T14:30:11;4.60;99.90
16263;DHT22;8239;48.594;8.598;2024-01-06T14:32:38;4.60;99.90
16263;DHT22;8239;48.594;8.598;2024-01-06T14:35:07;4.60;99.90
16263;DHT22;8239;48.594;8.598;2024-01-06T14:37:37;4.50;99.90
16263;DHT22;8239;48.594;8.598;2024-01-06T14:40:05;4.50;99.90
16263;DHT22;8239;48.594;8.598;2024-01-06T14:42:33;4.40;99.90
16263;DHT22;8239;48.594;8.598;2024-01-06T14:45:02;4.40;99.90
16263;DHT22;8239;48.594;8.598;2024-01-06T14:47:29;4.40;99.90
16263;DHT22;8239;48.594;8.598;2024-01-06T14:49:58;4.30;99.90
16263;DHT22;8239;48.594;8.598;2024-01-06T14:52:25;4.30;99.90
16263;DHT22;8239;48.594;8.598;2024-01-06T14:54:53;4.30;99.90
16263;DHT22;8239;48.594;8.598;2024-01-06T14:57:21;4.20;99.90
16263;DHT22;8239;48.594;8.598;2024-01-06T14:59:49;4.20;99.90
16263;DHT22;8239;48.594;8.598;2024-01-06T15:02:17;4.20;99.90
16263;DHT22;8239;48.594;8.598;2024-01-06T15:04:45;4.20;99.90
16263;DHT22;8239;48.594;8.598;2024-01-06T15:07:12;4.10;99.90
16263;DHT22;8239;48.594;8.598;2024-01-06T15:09:39;4.10;99.90
16263;DHT22;8239;48.594;8.598;2024-01-06T15:12:07;4.10;99.90
16263;DHT22;8239;48.594;8.598;2024-01-06T15:14:35;4.00;99.90
16263;DHT22;8239;48.594;8.598;2024-01-06T15:17:03;4.00;99.90
16263;DHT22;8239;48.594;8.598;2024-01-06T15:19:30;4.00;99.90
16263;DHT22;8239;48.594;8.598;2024-01-06T15:21:59;4.00;99.90
16263;DHT22;8239;48.594;8.598;2024-01-06T15:24:26;4.00;99.90
16263;DHT22;8239;48.594;8.598;2024-01-06T15:26:53;3.90;99.90
16263;DHT22;8239;48.594;8.598;2024-01-06T15:29:20;3.90;99.90
16263;DHT22;8239;48.594;8.598;2024-01-06T15:31:47;3.90;99.90
16263;DHT22;8239;48.594;8.598;2024-01-06T15:34:15;3.80;99.90
16263;DHT22;8239;48.594;8.598;2024-01-06T15:36:43;3.80;99.90
16263;DHT22;8239;48.594;8.598;2024-01-06T15:39:11;3.80;99.90
16263;DHT22;8239;48.594;8.598;2024-01-06T15:41:39;3.80;99.90
16263;DHT22;8239;48.594;8.598;2024-01-06T15:44:06;3.80;99.90
16263;DHT22;8239;48.594;8.598;2024-01-06T15:46:33;3.80;99.90
16263;DHT22;8239;48.594;8.598;2024-01-06T15:49:01;3.80;99.90
16263;DHT22;8239;48.594;8.598;2024-01-06T15:51:30;3.70;99.90
16263;DHT22;8239;48.594;8.598;2024-01-06T15:53:57;3.80;99.90
16263;DHT22;8239;48.594;8.598;2024-01-06T15:56:25;3.70;99.90
16263;DHT22;8239;48.594;8.598;2024-01-06T15:58:52;3.70;99.90
16263;DHT22;8239;48.594;8.598;2024-01-06T16:01:20;3.70;99.90
16263;DHT22;8239;48.594;8.598;2024-01-06T16:03:47;3.70;99.90
16263;DHT22;8239;48.594;8.598;2024-01-06T16:06:15;3.70;99.90
16263;DHT22;8239;48.594;8.598;2024-01-06T16:08:43;3.70;99.90